Time;durP1;ratioP1;P1;durP2;ratioP2;P2;SDS_P1;SDS_P2;PMS_P1;PMS_P2;Temp;Humidity;BMP_temperature;BMP_pressure;BME280_temperature;BME280_humidity;BME280_pressure;Samples;Min_cycle;Max_cycle;Signal;HPM_P1;HPM_P2
2022/10/24 00:02:09;;;;;;;6.85;3.10;;;13.60;83.60;;;;;;4210499;27;20074;-85
2022/10/24 00:04:28;;;;;;;5.65;2.55;;;13.60;83.60;;;;;;4216798;27;20038;-84
2022/10/24 00:06:47;;;;;;;6.28;2.78;;;13.60;83.60;;;;;;4193197;28;20153;-85
2022/10/24 00:09:07;;;;;;;8.02;3.42;;;13.60;83.50;;;;;;4203886;28;20133;-85
2022/10/24 00:11:27;;;;;;;6.85;3.65;;;13.60;83.50;;;;;;4202828;27;20043;-84
2022/10/24 00:13:47;;;;;;;7.05;2.85;;;13.60;83.50;;;;;;4205250;27;20047;-85
2022/10/24 00:16:07;;;;;;;6.78;2.97;;;13.60;83.40;;;;;;4215799;27;20047;-86
2022/10/24 00:18:26;;;;;;;11.20;3.20;;;13.60;83.40;;;;;;4199829;28;20043;-85
2022/10/24 00:20:45;;;;;;;5.55;2.97;;;13.60;83.40;;;;;;4217860;28;20042;-86
2022/10/24 00:23:04;;;;;;;9.48;3.10;;;13.60;83.40;;;;;;4208129;27;20420;-85
2022/10/24 00:25:23;;;;;;;13.75;3.30;;;13.50;83.30;;;;;;4222227;27;20047;-85
2022/10/24 00:27:43;;;;;;;7.05;3.10;;;13.50;83.30;;;;;;4219391;28;20042;-86
2022/10/24 00:30:04;;;;;;;7.53;2.53;;;13.50;83.40;;;;;;4222813;27;20088;-86
2022/10/24 00:32:23;;;;;;;4.10;2.25;;;13.50;83.40;;;;;;4205022;28;22185;-86
2022/10/24 00:34:42;;;;;;;7.25;2.63;;;13.50;83.40;;;;;;4222139;27;20502;-86
2022/10/24 00:37:02;;;;;;;10.40;2.65;;;13.50;83.40;;;;;;4201465;28;20113;-85
2022/10/24 00:39:22;;;;;;;4.38;2.20;;;13.50;83.30;;;;;;4207287;28;20047;-86
2022/10/24 00:41:42;;;;;;;7.90;2.38;;;13.50;83.20;;;;;;4225987;27;20042;-86
2022/10/24 00:44:16;;;;;;;5.70;2.13;;;13.50;83.20;;;;;;4219729;28;21557;-85
2022/10/24 00:46:35;;;;;;;;;;;13.50;83.20;;;;;;4210243;27;20093;-85
2022/10/24 00:48:55;;;;;;;12.35;2.53;;;13.50;83.30;;;;;;4216684;27;19915;-85
2022/10/24 00:51:26;;;;;;;6.90;2.08;;;13.50;83.00;;;;;;4228460;27;20042;-85
2022/10/24 00:53:52;;;;;;;4.38;2.00;;;13.50;83.10;;;;;;4216458;28;20102;-85
2022/10/24 00:56:13;;;;;;;5.85;1.80;;;13.60;83.30;;;;;;4211400;27;20045;-84
2022/10/24 00:58:35;;;;;;;5.05;2.17;;;13.50;83.30;;;;;;4210786;27;20560;-85
2022/10/24 01:00:55;;;;;;;6.32;2.10;;;13.50;83.40;;;;;;4211794;28;20564;-83
2022/10/24 01:03:14;;;;;;;11.90;1.80;;;13.60;83.60;;;;;;4205751;28;20030;-86
2022/10/24 01:05:51;;;;;;;6.13;1.70;;;13.60;83.70;;;;;;4217580;27;20136;-84
2022/10/24 01:08:34;;;;;;;3.55;1.70;;;13.50;83.70;;;;;;4215239;28;20305;-84
2022/10/24 01:11:03;;;;;;;8.55;2.00;;;13.50;83.70;;;;;;4201003;28;20040;-86
2022/10/24 01:13:58;;;;;;;5.15;1.52;;;13.50;83.70;;;;;;4209222;28;20120;-86
2022/10/24 01:16:39;;;;;;;5.45;2.15;;;13.50;83.80;;;;;;4211642;28;20096;-85
2022/10/24 01:19:12;;;;;;;8.27;1.77;;;13.50;83.70;;;;;;4218922;28;20693;-86
2022/10/24 01:21:41;;;;;;;3.88;1.73;;;13.60;83.70;;;;;;4203107;28;20066;-85
2022/10/24 01:24:20;;;;;;;13.85;2.10;;;13.60;83.70;;;;;;4208158;28;20142;-85
2022/10/24 01:27:13;;;;;;;7.45;2.17;;;13.60;83.60;;;;;;4212958;27;21944;-86
2022/10/24 01:30:06;;;;;;;5.60;1.70;;;13.60;83.60;;;;;;4200239;27;20039;-86
2022/10/24 01:32:38;;;;;;;3.42;1.55;;;13.60;83.60;;;;;;4198175;28;20942;-85
2022/10/24 01:35:24;;;;;;;3.30;1.85;;;13.60;83.50;;;;;;4214672;27;20100;-86
2022/10/24 01:37:50;;;;;;;4.03;1.77;;;13.60;83.50;;;;;;4214543;28;20144;-86
2022/10/24 01:40:35;;;;;;;5.25;1.70;;;13.60;83.50;;;;;;4201632;28;20032;-85
2022/10/24 01:42:59;;;;;;;9.60;1.42;;;13.60;83.40;;;;;;4207852;28;20096;-85
2022/10/24 01:45:24;;;;;;;6.70;2.25;;;13.70;83.40;;;;;;4212486;28;20131;-86
2022/10/24 01:47:48;;;;;;;6.32;1.67;;;13.60;83.30;;;;;;4200580;28;20801;-86
2022/10/24 01:50:12;;;;;;;8.77;1.90;;;13.60;83.30;;;;;;4219878;27;20046;-85
2022/10/24 01:52:36;;;;;;;5.53;1.90;;;13.60;83.30;;;;;;4212441;28;20046;-86
2022/10/24 01:54:55;;;;;;;4.07;1.60;;;13.50;83.20;;;;;;4221490;28;20039;-85
2022/10/24 01:57:14;;;;;;;9.63;1.67;;;13.50;83.30;;;;;;4202748;27;20127;-86
2022/10/24 01:59:46;;;;;;;7.68;1.70;;;13.50;83.20;;;;;;4211868;27;20042;-85
2022/10/24 02:02:38;;;;;;;8.85;1.92;;;13.50;83.30;;;;;;4198150;28;20507;-85
2022/10/24 02:05:00;;;;;;;5.18;1.50;;;13.50;83.20;;;;;;4155472;27;20032;-85
2022/10/24 02:07:22;;;;;;;3.72;1.70;;;13.50;83.10;;;;;;4193803;27;20047;-86
2022/10/24 02:09:45;;;;;;;5.32;1.40;;;13.60;83.20;;;;;;4208187;28;20131;-85
2022/10/24 02:12:07;;;;;;;7.80;1.40;;;13.50;83.10;;;;;;4221672;28;22376;-86
2022/10/24 02:14:35;;;;;;;2.97;1.48;;;13.50;83.10;;;;;;4221602;27;20065;-86
2022/10/24 02:16:54;;;;;;;3.90;1.55;;;13.50;83.10;;;;;;4202235;28;20034;-85
2022/10/24 02:19:15;;;;;;;4.15;1.60;;;13.50;83.10;;;;;;4200273;28;20107;-86
2022/10/24 02:21:51;;;;;;;7.32;1.80;;;13.50;83.10;;;;;;4200396;27;20149;-86
2022/10/24 02:24:17;;;;;;;8.68;1.80;;;13.60;83.10;;;;;;4208777;27;20041;-85
2022/10/24 02:26:43;;;;;;;8.27;1.90;;;13.50;83.10;;;;;;4213465;27;20039;-84
2022/10/24 02:29:10;;;;;;;6.07;1.77;;;13.50;83.20;;;;;;4214461;27;20084;-85
2022/10/24 02:31:34;;;;;;;6.90;1.67;;;13.40;83.00;;;;;;4213424;27;20088;-85
2022/10/24 02:33:55;;;;;;;4.43;1.42;;;13.50;83.10;;;;;;4193607;28;20039;-85
2022/10/24 02:36:24;;;;;;;3.83;1.40;;;13.40;83.20;;;;;;4214912;27;20088;-85
2022/10/24 02:38:47;;;;;;;6.97;1.40;;;13.40;83.10;;;;;;4215065;27;20038;-85
2022/10/24 02:41:15;;;;;;;9.10;1.70;;;13.50;83.10;;;;;;4214055;27;20911;-86
2022/10/24 02:43:36;;;;;;;5.90;1.23;;;13.50;83.10;;;;;;4209660;27;20123;-87
2022/10/24 02:45:57;;;;;;;11.02;1.63;;;13.50;83.00;;;;;;4197133;28;22481;-85
2022/10/24 02:48:22;;;;;;;7.32;1.48;;;13.50;83.10;;;;;;4213823;27;20088;-86
2022/10/24 02:50:42;;;;;;;2.60;1.30;;;13.40;83.00;;;;;;4212966;27;20043;-85
2022/10/24 02:53:01;;;;;;;6.13;1.83;;;13.40;83.00;;;;;;4215432;27;20806;-86
2022/10/24 02:55:21;;;;;;;4.93;1.73;;;13.40;83.00;;;;;;4222458;27;20391;-85
2022/10/24 02:57:40;;;;;;;6.32;1.80;;;13.40;83.00;;;;;;4207927;28;20036;-85
2022/10/24 03:00:00;;;;;;;7.50;1.60;;;13.40;83.00;;;;;;4221401;27;20065;-86
2022/10/24 03:02:20;;;;;;;4.28;1.50;;;13.40;83.00;;;;;;4222167;27;20063;-85
2022/10/24 03:04:38;;;;;;;10.25;1.50;;;13.40;83.00;;;;;;4219209;27;20138;-87
2022/10/24 03:06:58;;;;;;;11.05;1.60;;;13.40;83.00;;;;;;4223143;27;20034;-86
2022/10/24 03:09:17;;;;;;;11.90;1.48;;;13.40;82.90;;;;;;4218549;27;20034;-85
2022/10/24 03:11:36;;;;;;;4.13;1.50;;;13.40;82.90;;;;;;4218166;27;20550;-86
2022/10/24 03:13:55;;;;;;;5.47;1.65;;;13.40;82.90;;;;;;4204185;28;20043;-85
2022/10/24 03:16:14;;;;;;;4.65;1.48;;;13.40;83.00;;;;;;4208234;28;20175;-87
2022/10/24 03:18:33;;;;;;;9.05;1.60;;;13.50;83.00;;;;;;4221709;27;20089;-86
2022/10/24 03:20:53;;;;;;;6.25;1.70;;;13.40;82.90;;;;;;4217995;27;20105;-87
2022/10/24 03:23:12;;;;;;;7.72;1.48;;;13.30;82.80;;;;;;4229133;28;20037;-86
2022/10/24 03:25:31;;;;;;;11.85;1.90;;;13.40;82.90;;;;;;4211959;27;20038;-86
2022/10/24 03:27:50;;;;;;;6.03;1.35;;;13.30;82.80;;;;;;4219389;27;20042;-86
2022/10/24 03:30:10;;;;;;;3.17;1.50;;;13.40;82.80;;;;;;4199428;28;20059;-86
2022/10/24 03:32:29;;;;;;;3.67;1.50;;;13.40;82.80;;;;;;4217587;27;20148;-87
2022/10/24 03:34:48;;;;;;;3.53;1.40;;;13.30;82.80;;;;;;4202254;28;20066;-85
2022/10/24 03:37:07;;;;;;;4.80;1.60;;;13.30;82.80;;;;;;4202270;28;20047;-86
2022/10/24 03:39:26;;;;;;;6.40;1.60;;;13.30;82.80;;;;;;4200825;28;20043;-87
2022/10/24 03:41:45;;;;;;;7.80;1.92;;;13.30;82.70;;;;;;4221688;27;20092;-85
2022/10/24 03:44:05;;;;;;;4.35;1.40;;;13.30;82.70;;;;;;4198251;27;20051;-86
2022/10/24 03:46:24;;;;;;;5.20;1.80;;;13.30;82.60;;;;;;4217855;27;20046;-88
2022/10/24 03:48:43;;;;;;;5.65;1.50;;;13.30;82.50;;;;;;4216030;27;20133;-87
2022/10/24 03:51:02;;;;;;;7.20;1.70;;;13.40;82.60;;;;;;4197864;28;20038;-87
2022/10/24 03:53:22;;;;;;;8.63;1.65;;;13.30;82.50;;;;;;4216210;27;20057;-87
2022/10/24 03:55:41;;;;;;;7.22;1.77;;;13.30;82.50;;;;;;4211303;27;20035;-86
2022/10/24 03:58:00;;;;;;;3.25;1.40;;;13.30;82.50;;;;;;4214648;27;20042;-86
2022/10/24 04:00:19;;;;;;;7.25;1.40;;;13.40;82.60;;;;;;4215324;27;20076;-86
2022/10/24 04:02:39;;;;;;;3.28;1.17;;;13.20;82.40;;;;;;4204652;27;20063;-85
2022/10/24 04:04:58;;;;;;;8.43;1.40;;;13.20;82.50;;;;;;4215375;28;20257;-86
2022/10/24 04:07:17;;;;;;;5.05;1.35;;;13.20;82.50;;;;;;4202615;28;20085;-87
2022/10/24 04:09:37;;;;;;;4.55;1.40;;;13.20;82.40;;;;;;4203298;28;20090;-87
2022/10/24 04:11:56;;;;;;;2.83;1.30;;;13.20;82.40;;;;;;4214952;27;20042;-87
2022/10/24 04:14:16;;;;;;;6.93;1.20;;;13.30;82.50;;;;;;4198112;28;20055;-87
2022/10/24 04:16:35;;;;;;;4.55;1.50;;;13.20;82.40;;;;;;4215521;27;20038;-87
2022/10/24 04:18:54;;;;;;;9.20;1.70;;;13.20;82.40;;;;;;4200777;27;20175;-86
2022/10/24 04:21:14;;;;;;;8.10;1.75;;;13.20;82.40;;;;;;4210347;27;20739;-87
2022/10/24 04:23:37;;;;;;;8.07;1.65;;;13.20;82.40;;;;;;4211384;27;20061;-86
2022/10/24 04:25:56;;;;;;;4.13;1.50;;;13.00;82.30;;;;;;4207770;28;20043;-87
2022/10/24 04:28:16;;;;;;;5.97;1.42;;;13.10;82.30;;;;;;4213417;28;20046;-86
2022/10/24 04:30:35;;;;;;;4.32;1.58;;;13.10;83.10;;;;;;4217202;27;20076;-86
2022/10/24 04:32:55;;;;;;;10.45;1.60;;;13.10;82.30;;;;;;4212714;28;20058;-86
2022/10/24 04:35:15;;;;;;;5.75;1.63;;;13.10;82.40;;;;;;4202846;28;20083;-86
2022/10/24 04:37:34;;;;;;;7.10;1.98;;;13.10;83.10;;;;;;4212985;28;20061;-86
2022/10/24 04:39:54;;;;;;;5.57;1.60;;;13.10;82.30;;;;;;4196809;28;20030;-87
2022/10/24 04:42:13;;;;;;;5.20;1.58;;;13.10;82.40;;;;;;4221945;28;20046;-86
2022/10/24 04:44:32;;;;;;;9.05;1.63;;;13.10;82.40;;;;;;4202711;28;20042;-87
2022/10/24 04:46:51;;;;;;;10.60;1.88;;;13.00;82.30;;;;;;4206035;27;20136;-86
2022/10/24 04:49:10;;;;;;;5.95;1.52;;;13.00;82.50;;;;;;4204119;28;20076;-86
2022/10/24 04:51:30;;;;;;;7.85;1.60;;;13.10;83.20;;;;;;4214568;27;20914;-87
2022/10/24 04:53:50;;;;;;;5.18;1.50;;;13.00;82.40;;;;;;4196854;28;20043;-86
2022/10/24 04:56:10;;;;;;;10.45;1.80;;;13.00;82.40;;;;;;4200425;27;20090;-86
2022/10/24 04:58:29;;;;;;;4.93;1.80;;;13.00;82.50;;;;;;4221018;28;20659;-86
2022/10/24 05:00:49;;;;;;;10.32;1.80;;;13.00;82.50;;;;;;4213379;28;20089;-87
2022/10/24 05:03:08;;;;;;;4.07;1.92;;;13.10;82.60;;;;;;4228249;28;20084;-88
2022/10/24 05:05:27;;;;;;;10.70;1.80;;;13.00;82.50;;;;;;4228579;28;20095;-87
2022/10/24 05:07:47;;;;;;;7.32;1.75;;;13.00;82.50;;;;;;4228890;28;20050;-88
2022/10/24 05:10:06;;;;;;;7.75;2.00;;;13.00;82.50;;;;;;4214221;28;20043;-87
2022/10/24 05:12:25;;;;;;;9.38;1.63;;;13.00;82.50;;;;;;4210951;28;20084;-87
2022/10/24 05:14:46;;;;;;;3.30;1.58;;;12.90;82.50;;;;;;4222518;28;20074;-87
2022/10/24 05:17:05;;;;;;;4.03;1.65;;;13.00;82.50;;;;;;4215548;28;20124;-88
2022/10/24 05:19:24;;;;;;;2.70;1.70;;;12.90;82.50;;;;;;4219122;28;20088;-88
2022/10/24 05:21:43;;;;;;;8.15;2.00;;;13.00;82.60;;;;;;4221939;28;20034;-87
2022/10/24 05:24:03;;;;;;;3.45;1.65;;;13.00;82.60;;;;;;4214454;28;20038;-88
2022/10/24 05:26:22;;;;;;;8.05;1.80;;;12.90;82.50;;;;;;4218675;28;20076;-87
2022/10/24 05:28:41;;;;;;;4.63;1.60;;;13.10;82.70;;;;;;4235901;28;20070;-87
2022/10/24 05:31:00;;;;;;;5.82;1.83;;;13.10;82.70;;;;;;4208231;28;20441;-87
2022/10/24 05:33:22;;;;;;;5.55;1.70;;;12.90;82.50;;;;;;4231885;28;20630;-87
2022/10/24 05:35:41;;;;;;;6.88;1.60;;;13.00;82.60;;;;;;4210306;28;20081;-86
2022/10/24 05:37:42;;;;;;;8.27;1.98;;;12.90;82.50;;;;;;4231246;28;20051;-87
2022/10/24 05:39:48;;;;;;;9.15;1.98;;;12.90;82.60;;;;;;4215740;28;20435;-87
2022/10/24 05:41:49;;;;;;;9.00;2.08;;;13.00;82.60;;;;;;4199816;28;20024;-88
2022/10/24 05:43:50;;;;;;;5.18;2.17;;;12.90;82.60;;;;;;4198259;28;20016;-88
2022/10/24 05:45:51;;;;;;;7.03;2.17;;;13.00;82.60;;;;;;4231602;28;20030;-87
2022/10/24 05:47:52;;;;;;;5.85;2.05;;;13.00;82.70;;;;;;4209831;28;20021;-88
2022/10/24 05:49:52;;;;;;;3.97;1.95;;;12.90;82.60;;;;;;4228355;28;20024;-87
2022/10/24 05:52:13;;;;;;;9.40;2.22;;;13.00;82.70;;;;;;4207253;28;20101;-87
2022/10/24 05:54:15;;;;;;;5.75;2.10;;;12.90;82.70;;;;;;4209726;28;20082;-87
2022/10/24 05:56:36;;;;;;;10.70;1.85;;;13.00;82.70;;;;;;4211162;28;20032;-88
2022/10/24 05:58:37;;;;;;;7.45;2.10;;;12.90;82.70;;;;;;4221943;28;20019;-87
2022/10/24 06:00:40;;;;;;;;;;;12.90;82.70;;;;;;4193126;28;20528;-87
2022/10/24 06:03:01;;;;;;;8.85;1.88;;;12.90;82.90;;;;;;4226549;28;19916;-87
2022/10/24 06:05:21;;;;;;;10.15;2.20;;;13.00;82.70;;;;;;4223962;28;20039;-88
2022/10/24 06:07:42;;;;;;;11.32;2.10;;;13.00;82.70;;;;;;4213081;28;20036;-88
2022/10/24 06:10:04;;;;;;;16.55;2.40;;;12.90;82.80;;;;;;4220484;28;20187;-88
2022/10/24 06:12:25;;;;;;;9.70;2.33;;;12.90;82.90;;;;;;4215121;27;20027;-87
2022/10/24 06:14:45;;;;;;;5.88;2.15;;;13.00;83.10;;;;;;4223704;27;20055;-87
2022/10/24 06:17:08;;;;;;;3.85;1.77;;;12.90;83.20;;;;;;4218544;27;20075;-87
2022/10/24 06:19:28;;;;;;;7.43;2.28;;;12.90;83.20;;;;;;4231191;27;20031;-88
2022/10/24 06:21:49;;;;;;;8.10;2.15;;;13.00;83.40;;;;;;4220598;28;20540;-88
2022/10/24 06:24:09;;;;;;;12.35;2.38;;;13.00;83.50;;;;;;4223796;27;20506;-87
2022/10/24 06:26:30;;;;;;;3.60;1.90;;;13.00;83.50;;;;;;4213128;28;20103;-87
2022/10/24 06:28:51;;;;;;;6.50;1.80;;;13.00;83.60;;;;;;4224542;27;20028;-87
2022/10/24 06:31:12;;;;;;;5.93;1.88;;;13.00;83.60;;;;;;4211772;28;20036;-87
2022/10/24 06:33:34;;;;;;;4.40;2.17;;;13.20;83.70;;;;;;4232048;27;20500;-86
2022/10/24 06:35:57;;;;;;;11.23;1.98;;;13.20;83.70;;;;;;4226664;27;20027;-87
2022/10/24 06:38:18;;;;;;;13.18;2.40;;;13.10;83.70;;;;;;4210684;27;20402;-87
2022/10/24 06:40:39;;;;;;;9.52;2.65;;;13.20;83.70;;;;;;4223681;27;20023;-87
2022/10/24 06:43:00;;;;;;;8.13;1.95;;;13.20;83.70;;;;;;4214915;28;20415;-87
2022/10/24 06:45:22;;;;;;;7.15;1.85;;;13.20;83.70;;;;;;4225145;27;20399;-87
2022/10/24 06:47:43;;;;;;;5.72;1.88;;;13.30;83.80;;;;;;4228692;27;20062;-88
2022/10/24 06:50:04;;;;;;;12.73;2.17;;;13.20;83.70;;;;;;4208953;27;20036;-87
2022/10/24 06:52:25;;;;;;;9.23;2.50;;;13.20;83.60;;;;;;4227871;27;20178;-87
2022/10/24 06:54:46;;;;;;;8.15;2.10;;;13.30;83.70;;;;;;4231904;27;20100;-87
2022/10/24 06:57:06;;;;;;;8.45;1.70;;;13.40;83.70;;;;;;4220876;27;20065;-87
2022/10/24 06:59:27;;;;;;;11.25;2.22;;;13.30;83.50;;;;;;4207588;27;20487;-87
2022/10/24 07:01:48;;;;;;;6.45;1.85;;;13.30;83.50;;;;;;4225383;27;20463;-88
2022/10/24 07:04:08;;;;;;;7.57;2.00;;;13.50;83.60;;;;;;4218331;27;20119;-87
2022/10/24 07:06:29;;;;;;;9.63;2.10;;;13.40;84.20;;;;;;4220094;27;20372;-87
2022/10/24 07:08:51;;;;;;;7.60;2.38;;;13.40;83.40;;;;;;4225420;27;20020;-87
2022/10/24 07:11:12;;;;;;;7.63;1.90;;;13.40;83.40;;;;;;4225454;27;20444;-87
2022/10/24 07:13:33;;;;;;;5.95;1.60;;;13.40;83.40;;;;;;4207224;27;20559;-86
2022/10/24 07:15:54;;;;;;;5.80;2.13;;;13.40;83.30;;;;;;4212533;27;20028;-87
2022/10/24 07:18:15;;;;;;;9.40;2.22;;;13.50;83.30;;;;;;4205876;27;20538;-87
2022/10/24 07:20:35;;;;;;;14.20;2.20;;;13.50;83.20;;;;;;4222011;27;20028;-86
2022/10/24 07:22:56;;;;;;;7.05;1.65;;;13.60;83.30;;;;;;4222316;27;20031;-88
2022/10/24 07:25:17;;;;;;;10.75;2.00;;;13.50;83.20;;;;;;4205099;28;20732;-87
2022/10/24 07:27:38;;;;;;;12.93;2.55;;;13.50;83.10;;;;;;4208311;27;20564;-87
2022/10/24 07:29:58;;;;;;;14.88;2.05;;;13.60;83.00;;;;;;4216421;27;20134;-87
2022/10/24 07:32:20;;;;;;;9.90;1.75;;;13.60;83.00;;;;;;4225763;27;20105;-86
2022/10/24 07:34:40;;;;;;;6.25;1.60;;;13.60;83.00;;;;;;4228500;27;20560;-87
2022/10/24 07:37:03;;;;;;;5.35;1.58;;;13.60;82.90;;;;;;4220400;27;20445;-87
2022/10/24 07:39:23;;;;;;;6.60;1.98;;;13.70;82.90;;;;;;4227945;27;20056;-87
2022/10/24 07:41:44;;;;;;;9.18;2.00;;;13.80;83.00;;;;;;4226514;27;20555;-87
2022/10/24 07:44:04;;;;;;;9.60;2.20;;;13.80;83.00;;;;;;4205663;28;20028;-87
2022/10/24 07:46:26;;;;;;;10.07;2.00;;;13.80;82.90;;;;;;4223284;27;20043;-87
2022/10/24 07:48:52;;;;;;;15.48;1.90;;;13.80;82.80;;;;;;4221457;27;20491;-87
2022/10/24 07:51:13;;;;;;;10.00;1.80;;;13.70;82.60;;;;;;4220083;28;20032;-87
2022/10/24 07:53:34;;;;;;;10.70;2.33;;;13.80;83.40;;;;;;4222113;27;20027;-87
2022/10/24 07:55:58;;;;;;;10.82;1.77;;;13.80;82.60;;;;;;4226935;27;20024;-86
2022/10/24 07:58:19;;;;;;;;;;;13.80;82.60;;;;;;4208836;28;20107;-87
2022/10/24 08:00:40;;;;;;;6.03;1.90;;;13.80;82.50;;;;;;4223510;27;19916;-86
2022/10/24 08:03:01;;;;;;;5.25;2.00;;;13.90;82.40;;;;;;4223511;28;20487;-88
2022/10/24 08:05:21;;;;;;;8.43;2.45;;;13.90;82.30;;;;;;4226230;27;20038;-88
2022/10/24 08:07:40;;;;;;;8.90;2.17;;;13.90;82.40;;;;;;4227768;27;20345;-87
2022/10/24 08:10:00;;;;;;;12.50;2.10;;;13.90;82.40;;;;;;4214235;28;20469;-87
2022/10/24 08:12:19;;;;;;;11.23;2.22;;;13.90;82.30;;;;;;4214770;28;20065;-87
2022/10/24 08:14:40;;;;;;;7.25;1.90;;;14.00;82.30;;;;;;4224494;27;20085;-88
2022/10/24 08:16:59;;;;;;;6.53;1.83;;;14.00;82.40;;;;;;4216206;27;20043;-87
2022/10/24 08:19:18;;;;;;;5.32;1.80;;;14.00;82.30;;;;;;4217821;28;20042;-87
2022/10/24 08:21:37;;;;;;;12.20;2.00;;;14.00;82.20;;;;;;4207406;28;20093;-87
2022/10/24 08:23:57;;;;;;;11.60;1.65;;;14.10;82.20;;;;;;4220772;27;20073;-87
2022/10/24 08:26:20;;;;;;;7.55;1.88;;;14.10;82.20;;;;;;4224044;27;20089;-87
2022/10/24 08:28:39;;;;;;;4.60;1.70;;;14.10;82.10;;;;;;4209797;27;20058;-88
2022/10/24 08:31:02;;;;;;;10.10;1.55;;;14.10;82.00;;;;;;4219924;27;20035;-88
2022/10/24 08:33:21;;;;;;;7.43;1.88;;;14.20;81.90;;;;;;4213947;28;20526;-87
2022/10/24 08:35:42;;;;;;;7.35;1.95;;;14.20;81.90;;;;;;4211869;28;20034;-87
2022/10/24 08:38:01;;;;;;;8.65;1.65;;;14.30;81.80;;;;;;4219774;28;20120;-87
2022/10/24 08:40:21;;;;;;;6.95;1.70;;;14.40;81.90;;;;;;4217721;27;20054;-87
2022/10/24 08:42:40;;;;;;;9.57;2.03;;;14.30;81.70;;;;;;4223592;27;20104;-87
2022/10/24 08:44:59;;;;;;;5.25;1.50;;;14.40;81.80;;;;;;4227090;27;20042;-87
2022/10/24 08:47:41;;;;;;;10.02;2.20;;;14.50;81.70;;;;;;4214212;27;20034;-88
2022/10/24 08:50:28;;;;;;;9.23;1.70;;;14.50;81.50;;;;;;4220773;27;20031;-87
2022/10/24 08:52:53;;;;;;;10.48;1.80;;;14.50;80.90;;;;;;4233778;27;20035;-86
2022/10/24 08:55:19;;;;;;;6.70;1.67;;;14.60;81.10;;;;;;4236204;27;20042;-87
2022/10/24 08:57:41;;;;;;;7.97;1.70;;;14.60;81.00;;;;;;4235915;27;20066;-87
2022/10/24 09:00:11;;;;;;;6.43;1.52;;;14.70;81.00;;;;;;4221453;27;20126;-87
2022/10/24 09:02:36;;;;;;;11.38;1.70;;;14.70;80.80;;;;;;4216825;28;20038;-87
2022/10/24 09:05:02;;;;;;;7.65;1.70;;;14.80;80.90;;;;;;4231514;27;20035;-87
2022/10/24 09:07:22;;;;;;;14.57;1.58;;;14.90;80.90;;;;;;4209426;28;20046;-87
2022/10/24 09:09:46;;;;;;;6.40;1.33;;;15.00;80.80;;;;;;4227485;28;20096;-88
2022/10/24 09:12:12;;;;;;;7.63;1.70;;;15.10;80.70;;;;;;4217497;28;20069;-87
2022/10/24 09:14:35;;;;;;;9.60;1.67;;;15.10;80.20;;;;;;4231350;28;20502;-88
2022/10/24 09:16:59;;;;;;;7.05;1.60;;;15.20;80.20;;;;;;4229395;28;20045;-88
2022/10/24 09:19:20;;;;;;;;;;;15.30;80.00;;;;;;4225455;28;20107;-88
2022/10/24 09:21:41;;;;;;;10.07;1.60;;;15.40;79.20;;;;;;4204658;28;19911;-87
2022/10/24 09:24:00;;;;;;;6.63;1.65;;;15.50;79.80;;;;;;4221469;28;20043;-87
2022/10/24 09:26:29;;;;;;;8.93;1.70;;;15.60;79.20;;;;;;4222511;28;20116;-88
2022/10/24 09:28:48;;;;;;;18.35;2.25;;;15.70;78.30;;;;;;4218121;28;20092;-88
2022/10/24 09:31:17;;;;;;;8.52;1.60;;;15.70;78.10;;;;;;4203573;28;20063;-87
2022/10/24 09:33:39;;;;;;;9.02;1.98;;;15.80;77.60;;;;;;4217322;28;20078;-88
2022/10/24 09:36:01;;;;;;;11.32;1.55;;;15.90;77.40;;;;;;4208793;28;20138;-87
2022/10/24 09:38:33;;;;;;;8.32;1.80;;;16.00;76.90;;;;;;4225444;28;20038;-87
2022/10/24 09:40:57;;;;;;;7.72;1.60;;;16.10;75.80;;;;;;4223356;28;20030;-88
2022/10/24 09:43:21;;;;;;;11.32;2.03;;;16.10;76.00;;;;;;4213226;28;20529;-85
2022/10/24 09:46:02;;;;;;;9.75;1.80;;;16.20;75.30;;;;;;4217603;28;20043;-85
2022/10/24 09:48:43;;;;;;;5.78;1.25;;;16.30;75.60;;;;;;4205723;28;20101;-85
2022/10/24 09:51:04;;;;;;;11.43;1.50;;;16.40;74.10;;;;;;4229073;27;20038;-87
2022/10/24 09:53:27;;;;;;;5.85;1.20;;;16.40;74.00;;;;;;4216260;27;20034;-87
2022/10/24 09:55:51;;;;;;;10.43;1.60;;;16.50;73.30;;;;;;4213163;27;20704;-88
2022/10/24 09:58:19;;;;;;;8.20;1.55;;;16.50;72.30;;;;;;4209853;27;20075;-87
2022/10/24 10:00:38;;;;;;;8.27;1.17;;;16.50;71.40;;;;;;4210944;28;20637;-88
2022/10/24 10:03:17;;;;;;;8.23;1.38;;;16.60;71.40;;;;;;4228887;27;20049;-87
2022/10/24 10:05:45;;;;;;;7.50;1.50;;;16.60;71.20;;;;;;4211351;28;20031;-88
2022/10/24 10:08:10;;;;;;;7.82;1.20;;;16.60;70.90;;;;;;4213661;28;20039;-87
2022/10/24 10:10:33;;;;;;;9.70;1.48;;;16.60;70.80;;;;;;4206407;28;20063;-87
2022/10/24 10:13:03;;;;;;;9.73;1.63;;;16.60;70.40;;;;;;4222532;27;20045;-88
2022/10/24 10:15:52;;;;;;;5.93;1.13;;;16.60;70.10;;;;;;4227366;27;20035;-87
2022/10/24 10:18:32;;;;;;;9.30;1.23;;;16.60;69.40;;;;;;4221745;27;20477;-87
2022/10/24 10:20:58;;;;;;;10.10;1.50;;;16.70;69.20;;;;;;4229548;27;20059;-88
2022/10/24 10:23:31;;;;;;;8.77;1.27;;;16.80;69.70;;;;;;4232491;27;20038;-86
2022/10/24 10:26:13;;;;;;;10.52;1.48;;;16.70;69.50;;;;;;4216507;28;20043;-88
2022/10/24 10:29:00;;;;;;;9.85;1.60;;;16.70;69.00;;;;;;4228213;27;20412;-86
2022/10/24 10:31:27;;;;;;;8.20;1.50;;;16.80;69.10;;;;;;4229192;27;20035;-88
2022/10/24 10:34:11;;;;;;;5.95;1.42;;;16.80;69.50;;;;;;4213401;28;20751;-88
2022/10/24 10:36:42;;;;;;;5.78;1.10;;;16.80;68.80;;;;;;4217908;27;20131;-87
2022/10/24 10:39:04;;;;;;;7.70;1.42;;;16.90;69.40;;;;;;4223297;27;20070;-87
2022/10/24 10:41:46;;;;;;;7.88;1.20;;;16.90;69.00;;;;;;4221756;27;20132;-88
2022/10/24 10:44:19;;;;;;;7.50;1.50;;;16.90;68.00;;;;;;4227107;27;20107;-87
2022/10/24 10:46:50;;;;;;;8.50;1.10;;;17.00;68.30;;;;;;4211709;28;20542;-87
2022/10/24 10:49:26;;;;;;;11.45;1.73;;;17.00;67.70;;;;;;4229103;27;20502;-87
2022/10/24 10:52:21;;;;;;;12.10;2.38;;;17.00;67.30;;;;;;4219199;27;20657;-88
2022/10/24 10:54:43;;;;;;;6.60;1.40;;;17.00;66.10;;;;;;4222190;27;20120;-87
2022/10/24 10:57:08;;;;;;;5.40;1.50;;;17.00;67.50;;;;;;4213040;27;20185;-88
2022/10/24 10:59:43;;;;;;;7.28;1.20;;;17.00;67.20;;;;;;4226725;27;20083;-88
2022/10/24 11:02:29;;;;;;;5.25;1.33;;;17.00;66.80;;;;;;4213505;28;20660;-88
2022/10/24 11:05:14;;;;;;;12.50;1.38;;;17.00;66.50;;;;;;4228090;27;20118;-87
2022/10/24 11:07:54;;;;;;;6.40;1.38;;;17.00;66.60;;;;;;4231676;27;20050;-88
2022/10/24 11:10:22;;;;;;;6.45;1.38;;;17.00;66.40;;;;;;4225185;27;20034;-87
2022/10/24 11:12:43;;;;;;;9.23;1.30;;;17.00;66.70;;;;;;4221827;27;20561;-87
2022/10/24 11:15:13;;;;;;;13.75;1.10;;;17.10;67.10;;;;;;4225411;27;20038;-87
2022/10/24 11:18:08;;;;;;;12.10;1.70;;;17.10;67.20;;;;;;4226519;27;20054;-90
2022/10/24 11:20:33;;;;;;;7.53;1.20;;;17.10;65.10;;;;;;4149343;28;20040;-90
2022/10/24 11:23:01;;;;;;;7.93;1.65;;;17.20;66.30;;;;;;4163020;28;20071;-88
2022/10/24 11:25:38;;;;;;;5.50;1.20;;;17.20;66.30;;;;;;4149522;28;20048;-89
2022/10/24 11:28:36;;;;;;;4.72;1.08;;;17.20;66.20;;;;;;4148441;28;20044;-90
2022/10/24 11:31:00;;;;;;;9.20;1.10;;;17.20;65.90;;;;;;4151551;28;20068;-89
2022/10/24 11:33:35;;;;;;;6.20;1.30;;;17.30;65.90;;;;;;4157622;28;20032;-89
2022/10/24 11:36:05;;;;;;;5.50;1.33;;;17.20;65.40;;;;;;4148080;28;20037;-89
2022/10/24 11:38:26;;;;;;;7.22;1.02;;;17.20;65.90;;;;;;4167512;28;20032;-89
2022/10/24 11:40:51;;;;;;;5.78;0.95;;;17.10;66.00;;;;;;4162164;28;20169;-90
2022/10/24 11:43:26;;;;;;;8.95;1.20;;;17.10;66.20;;;;;;4148134;28;20445;-90
2022/10/24 11:46:08;;;;;;;;;;;17.10;66.30;;;;;;4168260;28;20040;-88
2022/10/24 11:48:45;;;;;;;7.40;1.33;;;17.10;66.50;;;;;;4152601;28;19924;-89
2022/10/24 11:51:27;;;;;;;14.60;1.48;;;17.10;66.30;;;;;;4151436;28;20076;-88
2022/10/24 11:53:51;;;;;;;9.50;1.20;;;17.00;66.10;;;;;;4149655;28;20040;-88
2022/10/24 11:56:12;;;;;;;11.55;1.38;;;17.00;66.90;;;;;;4198505;27;20043;-89
2022/10/24 11:58:35;;;;;;;7.65;1.33;;;16.90;66.80;;;;;;4226686;27;20084;-89
2022/10/24 12:01:28;;;;;;;3.60;0.95;;;16.90;67.00;;;;;;4208785;28;20047;-90
2022/10/24 12:04:21;;;;;;;9.13;1.25;;;16.90;67.30;;;;;;4208777;28;20416;-90
2022/10/24 12:07:14;;;;;;;4.68;1.10;;;16.90;67.50;;;;;;4211022;27;21774;-88
2022/10/24 12:09:45;;;;;;;7.57;1.20;;;16.90;67.60;;;;;;4231820;28;20100;-89
2022/10/24 12:12:34;;;;;;;7.72;1.83;;;17.00;67.30;;;;;;4209935;28;20076;-89
2022/10/24 12:15:25;;;;;;;6.30;0.93;;;17.00;67.70;;;;;;4215925;27;20155;-89
2022/10/24 12:18:00;;;;;;;8.55;1.50;;;17.00;67.00;;;;;;4210072;27;20031;-88
2022/10/24 12:20:22;;;;;;;10.95;1.45;;;17.00;67.10;;;;;;4227509;27;20147;-89
2022/10/24 12:22:43;;;;;;;5.03;1.10;;;17.00;67.30;;;;;;4212788;28;20043;-90
2022/10/24 12:25:18;;;;;;;3.72;0.88;;;17.10;66.90;;;;;;4211521;27;20423;-90
2022/10/24 12:27:39;;;;;;;5.00;1.13;;;17.10;66.70;;;;;;4226140;27;20192;-90
2022/10/24 12:30:20;;;;;;;5.47;1.10;;;17.10;66.60;;;;;;4210138;28;20035;-90